This is the latest recevied weather packets stored in our database for station/object S56IAR-13. If no packets are shown the sender has not sent any weather packets the latest 10 day(s).
| Time | Temp. | Humidity | Pressure | Rain* | Wind** | Luminosity | Snow |
|---|---|---|---|---|---|---|---|
| 1778080634 | 12.78° C | 97% | 957.6 hPa | 0 mm | - | 34 W/m² | - |
| 1778079004 | 12.78° C | 97% | 957.8 hPa | 0.76 mm | - | 59 W/m² | - |
| 1778078105 | 12.78° C | 96% | 957.7 hPa | 0.76 mm | - | 33 W/m² | - |
| 1778077803 | 12.22° C | 96% | 957.7 hPa | 0.76 mm | - | 42 W/m² | - |
| 1778076904 | 12.78° C | 96% | 957.9 hPa | 0.76 mm | - | 33 W/m² | - |
| 1778074933 | 12.78° C | 94% | 958.2 hPa | 0.25 mm | - | 110 W/m² | - |
| 1778072105 | 12.78° C | 95% | 958.3 hPa | 0 mm | - | 103 W/m² | - |
| 1778070903 | 12.78° C | 97% | 958.2 hPa | 0 mm | - | 70 W/m² | - |
| 1778070605 | 12.22° C | 96% | 958.2 hPa | 0 mm | - | 68 W/m² | - |
| 1778069105 | 12.22° C | 97% | 958.2 hPa | 0.76 mm | - | 43 W/m² | - |
| 1778067305 | 12.22° C | 96% | 958.6 hPa | 0.76 mm | - | 49 W/m² | - |
| 1778066233 | 12.78° C | 96% | 958.5 hPa | 0.25 mm | - | 131 W/m² | - |
| 1778065635 | 12.22° C | 95% | 958.6 hPa | 0 mm | - | 67 W/m² | - |
| 1778064905 | 12.78° C | 94% | 958.8 hPa | 0.25 mm | - | 61 W/m² | - |
| 1778064603 | 12.78° C | 94% | 958.8 hPa | 0.25 mm | - | 96 W/m² | - |
| 1778061303 | 12.22° C | 97% | 959.3 hPa | 3.81 mm | - | 62 W/m² | - |
| 1778058904 | 12.78° C | 94% | 959.4 hPa | 4.06 mm | - | 153 W/m² | - |
| 1778056504 | 13.33° C | 95% | 959 hPa | 1.27 mm | - | 37 W/m² | - |
| 1778055733 | 13.89° C | 92% | 958.9 hPa | 0.51 mm | - | 82 W/m² | - |
| 1778055004 | 13.89° C | 90% | 958.8 hPa | 0 mm | - | 71 W/m² | - |
| 1778053335 | 13.89° C | 89% | 958.5 hPa | 0 mm | - | 109 W/m² | - |
| 1778052005 | 13.89° C | 90% | 958.5 hPa | 0 mm | - | 219 W/m² | - |
| 1778051405 | 12.78° C | 95% | 958.9 hPa | 0 mm | - | 110 W/m² | - |
| 1778049903 | 12.22° C | 99% | 959.1 hPa | 0 mm | - | 87 W/m² | - |
| 1778045404 | 10.56° C | 99% | 958.5 hPa | 0 mm | - | 74 W/m² | - |
* Rain latest hour (hover to see other rain measurements)
** Current wind speed in m/s (hover to see current wind gust speed)